Time;durP1;ratioP1;P1;durP2;ratioP2;P2;SDS_P1;SDS_P2;PMS_P1;PMS_P2;Temp;Humidity;BMP_temperature;BMP_pressure;BME280_temperature;BME280_humidity;BME280_pressure;Samples;Min_cycle;Max_cycle;Signal;HPM_P1;HPM_P2
2023/03/18 00:01:08;;;;;;;8.68;6.50;;;;;;;;;;5018066;28;20092;-71
2023/03/18 00:03:36;;;;;;;16.60;8.25;;;;;;;;;;5006072;28;20094;-71
2023/03/18 00:06:08;;;;;;;13.40;8.00;;;;;;;;;;5031410;28;20042;-70
2023/03/18 00:08:34;;;;;;;12.73;8.15;;;;;;;;;;5028052;28;20220;-70
2023/03/18 00:11:01;;;;;;;14.43;8.85;;;;;;;;;;4998930;28;20452;-71
2023/03/18 00:13:27;;;;;;;14.63;8.00;;;;;;;;;;5013826;28;20192;-71
2023/03/18 00:15:53;;;;;;;14.20;9.52;;;;;;;;;;5030188;28;20438;-71
2023/03/18 00:18:19;;;;;;;12.65;8.90;;;;;;;;;;5028604;28;20040;-70
2023/03/18 00:20:44;;;;;;;11.45;8.07;;;;;;;;;;5010743;28;20029;-70
2023/03/18 00:23:11;;;;;;;13.82;9.13;;;;;;;;;;4996763;28;20025;-70
2023/03/18 00:25:38;;;;;;;13.65;8.27;;;;;;;;;;5031297;28;20124;-71
2023/03/18 00:28:05;;;;;;;13.18;9.13;;;;;;;;;;5031086;28;20080;-70
2023/03/18 00:30:32;;;;;;;16.33;10.32;;;;;;;;;;5011772;28;20021;-71
2023/03/18 00:32:59;;;;;;;22.73;10.13;;;;;;;;;;4993884;28;20037;-70
2023/03/18 00:35:29;;;;;;;14.15;8.70;;;;;;;;;;4975694;28;20033;-71
2023/03/18 00:37:56;;;;;;;12.38;8.60;;;;;;;;;;5011923;28;20543;-70
2023/03/18 00:40:28;;;;;;;13.13;9.32;;;;;;;;;;4989886;28;20730;-69
2023/03/18 00:43:06;;;;;;;13.13;9.27;;;;;;;;;;5000824;28;20029;-71
2023/03/18 00:45:36;;;;;;;20.75;9.60;;;;;;;;;;5014226;28;20267;-70
2023/03/18 00:48:02;;;;;;;15.23;9.57;;;;;;;;;;5006629;28;20505;-69
2023/03/18 00:50:28;;;;;;;19.83;10.88;;;;;;;;;;5025563;28;20478;-70
2023/03/18 00:52:55;;;;;;;15.80;10.05;;;;;;;;;;5010494;28;20042;-70
2023/03/18 00:55:21;;;;;;;18.63;10.77;;;;;;;;;;4997477;28;20034;-70
2023/03/18 00:57:46;;;;;;;18.00;12.15;;;;;;;;;;4978710;28;20079;-70
2023/03/18 01:00:15;;;;;;;20.60;10.70;;;;;;;;;;4994086;28;20172;-70
2023/03/18 01:02:43;;;;;;;15.85;9.38;;;;;;;;;;5009429;28;20053;-70
2023/03/18 01:05:11;;;;;;;14.90;10.07;;;;;;;;;;4993866;28;20033;-70
2023/03/18 01:07:40;;;;;;;14.80;9.68;;;;;;;;;;4995265;28;20112;-70
2023/03/18 01:10:06;;;;;;;18.90;10.20;;;;;;;;;;5012371;28;20173;-70
2023/03/18 01:12:32;;;;;;;17.05;9.57;;;;;;;;;;5002090;28;20029;-69
2023/03/18 01:14:58;;;;;;;15.75;10.02;;;;;;;;;;5011707;28;20419;-70
2023/03/18 01:17:25;;;;;;;14.90;8.45;;;;;;;;;;5013668;28;20077;-69
2023/03/18 01:19:51;;;;;;;13.07;8.90;;;;;;;;;;5030853;28;20592;-69
2023/03/18 01:22:18;;;;;;;15.10;9.15;;;;;;;;;;5031360;28;20120;-71
2023/03/18 01:24:48;;;;;;;11.70;8.13;;;;;;;;;;5029977;28;20063;-69
2023/03/18 01:27:15;;;;;;;11.85;8.13;;;;;;;;;;5029984;28;20030;-69
2023/03/18 01:29:45;;;;;;;16.80;9.65;;;;;;;;;;5013178;28;20108;-69
2023/03/18 01:32:16;;;;;;;13.48;8.18;;;;;;;;;;5029822;28;20551;-69
2023/03/18 01:34:41;;;;;;;11.57;7.40;;;;;;;;;;5031097;28;20030;-70
2023/03/18 01:37:07;;;;;;;13.98;8.43;;;;;;;;;;5013431;28;20026;-70
2023/03/18 01:39:36;;;;;;;13.68;9.00;;;;;;;;;;5002780;28;20038;-70
2023/03/18 01:42:05;;;;;;;10.98;8.23;;;;;;;;;;5003112;28;20022;-70
2023/03/18 01:44:32;;;;;;;13.68;9.25;;;;;;;;;;5030344;28;20069;-70
2023/03/18 01:46:58;;;;;;;15.55;8.88;;;;;;;;;;5016969;28;20522;-70
2023/03/18 01:49:35;;;;;;;12.23;8.60;;;;;;;;;;5016729;28;20030;-70
2023/03/18 01:52:11;;;;;;;12.60;8.32;;;;;;;;;;5033503;28;20045;-70
2023/03/18 01:54:59;;;;;;;11.45;8.10;;;;;;;;;;5034747;28;20033;-71
2023/03/18 01:57:26;;;;;;;12.65;8.05;;;;;;;;;;5016883;28;20037;-70
2023/03/18 01:59:54;;;;;;;11.10;7.93;;;;;;;;;;5016703;28;20033;-71
2023/03/18 02:02:20;;;;;;;10.40;7.30;;;;;;;;;;5033389;28;20040;-71
2023/03/18 02:04:52;;;;;;;10.68;8.38;;;;;;;;;;5016633;28;20021;-70
2023/03/18 02:07:28;;;;;;;12.82;8.82;;;;;;;;;;5016636;28;20091;-70
2023/03/18 02:10:03;;;;;;;11.25;7.53;;;;;;;;;;4990394;28;20046;-69
2023/03/18 02:12:37;;;;;;;12.27;8.13;;;;;;;;;;5033034;28;20034;-69
2023/03/18 02:15:12;;;;;;;12.35;8.73;;;;;;;;;;5016525;28;20041;-70
2023/03/18 02:17:41;;;;;;;12.25;8.73;;;;;;;;;;5016472;28;20030;-70
2023/03/18 02:20:37;;;;;;;12.65;9.52;;;;;;;;;;5007039;28;20483;-70
2023/03/18 02:23:13;;;;;;;13.40;9.77;;;;;;;;;;5027362;28;20040;-69
2023/03/18 02:25:54;;;;;;;12.25;7.93;;;;;;;;;;5012937;28;20042;-69
2023/03/18 02:28:26;;;;;;;12.68;8.27;;;;;;;;;;5007753;28;20085;-69
2023/03/18 02:30:58;;;;;;;10.77;7.20;;;;;;;;;;5007948;28;20236;-70
2023/03/18 02:33:29;;;;;;;10.30;8.00;;;;;;;;;;5024452;28;20120;-70
2023/03/18 02:36:02;;;;;;;11.23;7.07;;;;;;;;;;5020758;28;20254;-70
2023/03/18 02:38:30;;;;;;;10.95;7.40;;;;;;;;;;5011638;28;20026;-70
2023/03/18 02:40:56;;;;;;;14.57;7.80;;;;;;;;;;5013812;28;20021;-71
2023/03/18 02:43:29;;;;;;;12.85;9.07;;;;;;;;;;5002878;28;20431;-71
2023/03/18 02:46:22;;;;;;;13.20;9.10;;;;;;;;;;4974941;28;20085;-70
2023/03/18 02:48:49;;;;;;;14.48;8.82;;;;;;;;;;4989186;28;20088;-71
2023/03/18 02:51:17;;;;;;;21.85;10.40;;;;;;;;;;4996032;28;20026;-71
2023/03/18 02:53:44;;;;;;;22.20;9.63;;;;;;;;;;4994847;28;20265;-70
2023/03/18 02:56:11;;;;;;;13.32;9.10;;;;;;;;;;5011762;28;20458;-70
2023/03/18 02:58:39;;;;;;;14.88;9.45;;;;;;;;;;4995440;28;20041;-71
2023/03/18 03:01:07;;;;;;;19.67;10.55;;;;;;;;;;4995885;28;20025;-71
2023/03/18 03:03:34;;;;;;;27.58;11.93;;;;;;;;;;4997297;28;20057;-69
2023/03/18 03:06:00;;;;;;;23.00;10.63;;;;;;;;;;4995665;28;20108;-69
2023/03/18 03:08:26;;;;;;;16.83;11.70;;;;;;;;;;4992600;28;20030;-70
2023/03/18 03:10:53;;;;;;;17.08;11.68;;;;;;;;;;5013225;28;20029;-70
2023/03/18 03:13:21;;;;;;;15.73;10.82;;;;;;;;;;4995360;28;20033;-71
2023/03/18 03:15:48;;;;;;;19.05;12.13;;;;;;;;;;4995054;28;20022;-70
2023/03/18 03:18:15;;;;;;;15.15;10.68;;;;;;;;;;5003063;28;20080;-70
2023/03/18 03:20:42;;;;;;;16.88;10.55;;;;;;;;;;5003267;28;20029;-70
2023/03/18 03:23:11;;;;;;;16.10;10.50;;;;;;;;;;4995120;28;20038;-70
2023/03/18 03:25:38;;;;;;;14.90;11.30;;;;;;;;;;5003350;28;20390;-69
2023/03/18 03:28:05;;;;;;;17.10;11.05;;;;;;;;;;4994860;28;20553;-70
2023/03/18 03:30:31;;;;;;;17.45;11.82;;;;;;;;;;4995052;28;20387;-69
2023/03/18 03:32:57;;;;;;;15.65;11.25;;;;;;;;;;4995105;28;20038;-70
2023/03/18 03:35:23;;;;;;;13.98;10.32;;;;;;;;;;4993109;28;20025;-70
2023/03/18 03:37:49;;;;;;;15.20;11.13;;;;;;;;;;4997222;28;20514;-70
2023/03/18 03:40:17;;;;;;;15.70;10.90;;;;;;;;;;5011263;28;20077;-70
2023/03/18 03:42:44;;;;;;;16.92;9.68;;;;;;;;;;4995216;28;20060;-70
2023/03/18 03:45:12;;;;;;;16.25;10.05;;;;;;;;;;5012724;28;20084;-71
2023/03/18 03:47:40;;;;;;;16.05;10.57;;;;;;;;;;4992230;28;20037;-71
2023/03/18 03:50:06;;;;;;;16.73;9.65;;;;;;;;;;4993362;28;20037;-71
2023/03/18 03:52:32;;;;;;;13.20;9.23;;;;;;;;;;5013182;28;20471;-70
2023/03/18 03:54:59;;;;;;;13.05;9.13;;;;;;;;;;4990668;28;20109;-70
2023/03/18 03:57:26;;;;;;;12.57;8.93;;;;;;;;;;5014517;28;20064;-70
2023/03/18 03:59:53;;;;;;;13.93;10.35;;;;;;;;;;5011441;28;20457;-71
2023/03/18 04:02:40;;;;;;;15.43;9.82;;;;;;;;;;5010757;28;20049;-69
2023/03/18 04:05:07;;;;;;;14.70;9.05;;;;;;;;;;4993323;28;20038;-71
2023/03/18 04:07:33;;;;;;;14.02;10.05;;;;;;;;;;5000990;28;20017;-70
2023/03/18 04:09:59;;;;;;;15.90;9.27;;;;;;;;;;4994355;28;20028;-71
2023/03/18 04:12:25;;;;;;;14.68;10.00;;;;;;;;;;4998352;28;20033;-71
2023/03/18 04:14:56;;;;;;;16.45;10.05;;;;;;;;;;5000014;28;20037;-70
2023/03/18 04:17:22;;;;;;;15.48;9.70;;;;;;;;;;5011490;28;20088;-70
2023/03/18 04:19:48;;;;;;;15.13;9.27;;;;;;;;;;4993475;28;20361;-70
2023/03/18 04:22:15;;;;;;;22.98;12.40;;;;;;;;;;5014674;28;20191;-70
2023/03/18 04:24:41;;;;;;;18.05;11.23;;;;;;;;;;4994314;28;20530;-71
2023/03/18 04:27:07;;;;;;;24.67;12.65;;;;;;;;;;5016757;28;20032;-70
2023/03/18 04:29:33;;;;;;;25.42;13.73;;;;;;;;;;5012684;28;20032;-70
2023/03/18 04:32:00;;;;;;;20.20;12.32;;;;;;;;;;4996614;28;20079;-70
2023/03/18 04:34:26;;;;;;;26.55;13.45;;;;;;;;;;4996156;28;20435;-71
2023/03/18 04:36:51;;;;;;;22.25;11.63;;;;;;;;;;5009829;28;20279;-70
2023/03/18 04:39:17;;;;;;;18.73;11.32;;;;;;;;;;4993074;28;20026;-70
2023/03/18 04:41:43;;;;;;;24.65;14.57;;;;;;;;;;4993491;28;20030;-70
2023/03/18 04:44:10;;;;;;;27.67;15.07;;;;;;;;;;4996270;28;20029;-71
2023/03/18 04:46:42;;;;;;;22.80;14.82;;;;;;;;;;4994124;28;20045;-71
2023/03/18 04:49:09;;;;;;;20.30;12.60;;;;;;;;;;4997645;28;20040;-71
2023/03/18 04:51:36;;;;;;;19.13;13.02;;;;;;;;;;5009750;28;20033;-71
2023/03/18 04:54:03;;;;;;;18.98;13.15;;;;;;;;;;4993720;28;20033;-70
2023/03/18 04:56:30;;;;;;;28.42;13.05;;;;;;;;;;4993736;28;20018;-71
2023/03/18 04:58:57;;;;;;;25.52;13.88;;;;;;;;;;4992993;28;20049;-70
2023/03/18 05:01:28;;;;;;;22.08;12.35;;;;;;;;;;4993816;28;20022;-71
2023/03/18 05:03:54;;;;;;;19.35;12.98;;;;;;;;;;5015035;28;20029;-71
2023/03/18 05:06:29;;;;;;;20.60;13.52;;;;;;;;;;4992244;28;20418;-71
2023/03/18 05:09:04;;;;;;;26.33;13.15;;;;;;;;;;5001011;28;20117;-71
2023/03/18 05:11:32;;;;;;;27.10;14.48;;;;;;;;;;4993895;28;20412;-71
2023/03/18 05:14:04;;;;;;;24.13;15.32;;;;;;;;;;4997696;28;20037;-70
2023/03/18 05:16:38;;;;;;;31.10;15.95;;;;;;;;;;5010878;28;20046;-70
2023/03/18 05:19:04;;;;;;;32.72;17.95;;;;;;;;;;5034296;28;20201;-70
2023/03/18 05:21:31;;;;;;;35.20;17.52;;;;;;;;;;5016915;28;20238;-70
2023/03/18 05:23:57;;;;;;;28.35;15.43;;;;;;;;;;5016778;28;20037;-71
2023/03/18 05:26:24;;;;;;;26.67;15.25;;;;;;;;;;5017207;28;20033;-70
2023/03/18 05:28:51;;;;;;;22.00;13.98;;;;;;;;;;5002306;28;20088;-70
2023/03/18 05:31:25;;;;;;;28.85;16.30;;;;;;;;;;5014596;28;20026;-70
2023/03/18 05:33:52;;;;;;;27.60;16.73;;;;;;;;;;4996138;28;20052;-72
2023/03/18 05:36:19;;;;;;;33.78;17.05;;;;;;;;;;4997062;28;20034;-71
2023/03/18 05:38:53;;;;;;;24.90;14.68;;;;;;;;;;4996729;28;20029;-72
2023/03/18 05:41:20;;;;;;;26.42;14.20;;;;;;;;;;4997109;28;20035;-71
2023/03/18 05:43:46;;;;;;;39.60;16.63;;;;;;;;;;4997353;28;20117;-72
2023/03/18 05:46:14;;;;;;;23.75;13.90;;;;;;;;;;4997419;28;20026;-72
2023/03/18 05:49:01;;;;;;;31.45;14.65;;;;;;;;;;4996939;28;20404;-72
2023/03/18 05:51:33;;;;;;;24.27;14.18;;;;;;;;;;4996382;28;20033;-71
2023/03/18 05:54:00;;;;;;;29.45;14.23;;;;;;;;;;5013382;28;20026;-71
2023/03/18 05:56:31;;;;;;;28.98;14.25;;;;;;;;;;5011846;28;20562;-71
2023/03/18 05:59:00;;;;;;;33.50;15.10;;;;;;;;;;4997607;28;20445;-70
2023/03/18 06:01:44;;;;;;;18.58;12.25;;;;;;;;;;5013789;28;20128;-72
2023/03/18 06:04:18;;;;;;;18.83;11.55;;;;;;;;;;5012519;28;20480;-72
2023/03/18 06:06:44;;;;;;;18.08;10.93;;;;;;;;;;5012146;28;20099;-72
2023/03/18 06:09:12;;;;;;;18.60;12.38;;;;;;;;;;4996402;28;20017;-71
2023/03/18 06:11:42;;;;;;;27.83;13.13;;;;;;;;;;5013019;28;20527;-72
2023/03/18 06:14:08;;;;;;;22.85;14.10;;;;;;;;;;4996081;28;20033;-71
2023/03/18 06:16:34;;;;;;;19.92;13.38;;;;;;;;;;4997857;28;20041;-71
2023/03/18 06:19:01;;;;;;;20.75;11.93;;;;;;;;;;5012799;28;20061;-72
2023/03/18 06:21:27;;;;;;;21.80;12.65;;;;;;;;;;4995489;28;20025;-71
2023/03/18 06:23:55;;;;;;;19.77;12.18;;;;;;;;;;4995676;28;20464;-71
2023/03/18 06:26:27;;;;;;;23.73;13.35;;;;;;;;;;4996800;28;20049;-71
2023/03/18 06:28:53;;;;;;;20.13;12.27;;;;;;;;;;5025731;28;20026;-72
2023/03/18 06:31:20;;;;;;;18.00;13.10;;;;;;;;;;5009568;28;20030;-72
2023/03/18 06:33:47;;;;;;;21.10;13.75;;;;;;;;;;5009257;28;20080;-72
2023/03/18 06:36:15;;;;;;;25.45;15.23;;;;;;;;;;5010459;28;20487;-71
2023/03/18 06:38:45;;;;;;;33.33;18.55;;;;;;;;;;4995013;28;20034;-72
2023/03/18 06:41:11;;;;;;;30.38;15.05;;;;;;;;;;5004336;28;20069;-72
2023/03/18 06:43:42;;;;;;;23.20;13.60;;;;;;;;;;5000981;28;20041;-71
2023/03/18 06:46:09;;;;;;;17.08;12.15;;;;;;;;;;5010052;28;20094;-71
2023/03/18 06:48:39;;;;;;;23.70;12.45;;;;;;;;;;4993515;28;20507;-71
2023/03/18 06:51:06;;;;;;;18.55;11.98;;;;;;;;;;4994410;28;20076;-71
2023/03/18 06:53:36;;;;;;;20.05;13.52;;;;;;;;;;5011121;28;20233;-72
2023/03/18 06:56:04;;;;;;;19.65;13.60;;;;;;;;;;5011322;28;20030;-72
2023/03/18 06:58:38;;;;;;;21.77;13.50;;;;;;;;;;4994583;28;20420;-73
2023/03/18 07:01:07;;;;;;;23.50;13.25;;;;;;;;;;4995100;28;20154;-71
2023/03/18 07:03:37;;;;;;;22.58;14.82;;;;;;;;;;5009901;28;20444;-71
2023/03/18 07:06:06;;;;;;;19.33;13.55;;;;;;;;;;4995564;28;20503;-71
2023/03/18 07:08:32;;;;;;;20.63;13.93;;;;;;;;;;4993667;28;20018;-71
2023/03/18 07:10:59;;;;;;;21.30;14.13;;;;;;;;;;5011136;28;20054;-72
2023/03/18 07:13:25;;;;;;;22.90;12.90;;;;;;;;;;5004737;28;20662;-71
2023/03/18 07:15:55;;;;;;;19.63;13.95;;;;;;;;;;5007309;28;20586;-72
2023/03/18 07:18:22;;;;;;;21.00;13.73;;;;;;;;;;4992368;28;20077;-72
2023/03/18 07:20:48;;;;;;;19.85;13.43;;;;;;;;;;4994759;28;20030;-71
2023/03/18 07:23:14;;;;;;;24.58;13.07;;;;;;;;;;4989443;28;20030;-72
2023/03/18 07:25:41;;;;;;;18.17;13.00;;;;;;;;;;5024464;28;20029;-71
2023/03/18 07:28:06;;;;;;;19.38;14.05;;;;;;;;;;4994087;28;20029;-71
2023/03/18 07:30:33;;;;;;;23.48;14.45;;;;;;;;;;5009112;28;20112;-72
2023/03/18 07:32:58;;;;;;;23.63;13.68;;;;;;;;;;5012457;28;20421;-73
2023/03/18 07:35:27;;;;;;;18.70;12.75;;;;;;;;;;5000384;28;20070;-73
2023/03/18 07:37:52;;;;;;;19.35;12.75;;;;;;;;;;5010962;28;20025;-74
2023/03/18 07:40:19;;;;;;;17.92;11.95;;;;;;;;;;5011776;28;20026;-73
2023/03/18 07:42:45;;;;;;;16.48;11.90;;;;;;;;;;5010854;28;20424;-72
2023/03/18 07:45:11;;;;;;;16.30;12.38;;;;;;;;;;5009928;28;20780;-71
2023/03/18 07:47:37;;;;;;;19.85;12.70;;;;;;;;;;5009005;28;20116;-68
2023/03/18 07:50:04;;;;;;;12.18;6.90;;;;;;;;;;5010338;28;20136;-70
2023/03/18 07:52:30;;;;;;;17.23;8.35;;;;;;;;;;5010073;28;20172;-71
2023/03/18 07:54:55;;;;;;;17.25;8.25;;;;;;;;;;5008425;28;20456;-73
2023/03/18 07:57:22;;;;;;;14.60;9.88;;;;;;;;;;5009902;28;20022;-71
2023/03/18 07:59:48;;;;;;;12.05;9.48;;;;;;;;;;5009085;28;20121;-72
2023/03/18 08:02:14;;;;;;;12.48;9.55;;;;;;;;;;5009490;28;20041;-72
2023/03/18 08:04:42;;;;;;;14.63;9.95;;;;;;;;;;5007652;28;20045;-71
2023/03/18 08:07:09;;;;;;;14.45;10.57;;;;;;;;;;5001926;28;20030;-72
2023/03/18 08:09:35;;;;;;;15.23;8.13;;;;;;;;;;4992653;28;20065;-73
2023/03/18 08:12:01;;;;;;;14.55;7.93;;;;;;;;;;5010327;28;20030;-73
2023/03/18 08:14:27;;;;;;;8.75;7.00;;;;;;;;;;5001766;28;20123;-72
2023/03/18 08:16:56;;;;;;;9.75;6.50;;;;;;;;;;5024480;28;20594;-74
2023/03/18 08:19:22;;;;;;;14.80;7.85;;;;;;;;;;5020807;28;20501;-72
2023/03/18 08:21:48;;;;;;;14.40;6.97;;;;;;;;;;5010574;28;20109;-73
2023/03/18 08:24:17;;;;;;;8.02;5.60;;;;;;;;;;4993589;28;20507;-72
2023/03/18 08:26:48;;;;;;;10.20;5.30;;;;;;;;;;5010354;28;20014;-75
2023/03/18 08:29:14;;;;;;;6.97;4.97;;;;;;;;;;4994059;28;20519;-72
2023/03/18 08:31:40;;;;;;;8.30;4.90;;;;;;;;;;5009885;28;20021;-72
2023/03/18 08:34:05;;;;;;;7.35;5.40;;;;;;;;;;5011473;28;20032;-71
2023/03/18 08:36:31;;;;;;;8.63;5.55;;;;;;;;;;5010186;28;20017;-73
2023/03/18 08:38:57;;;;;;;7.45;5.30;;;;;;;;;;5008844;28;20062;-73
2023/03/18 08:41:25;;;;;;;7.65;5.20;;;;;;;;;;5023802;28;20030;-73
2023/03/18 08:43:51;;;;;;;8.55;4.45;;;;;;;;;;5015315;28;20044;-73
2023/03/18 08:46:17;;;;;;;6.05;4.68;;;;;;;;;;4984023;28;20073;-73
2023/03/18 08:48:43;;;;;;;6.95;4.65;;;;;;;;;;5007831;28;20033;-72
2023/03/18 08:51:12;;;;;;;6.38;5.03;;;;;;;;;;5008949;28;20022;-72
2023/03/18 08:53:37;;;;;;;9.20;5.80;;;;;;;;;;5009900;28;20053;-72
2023/03/18 08:56:06;;;;;;;6.82;4.63;;;;;;;;;;5010549;28;20022;-71
2023/03/18 08:58:33;;;;;;;10.88;5.45;;;;;;;;;;5006874;28;20053;-71
2023/03/18 09:01:02;;;;;;;7.38;4.13;;;;;;;;;;5005622;28;20084;-72
2023/03/18 09:03:29;;;;;;;6.90;4.70;;;;;;;;;;5009100;28;20045;-72
2023/03/18 09:05:54;;;;;;;13.30;4.38;;;;;;;;;;5005886;28;20248;-71
2023/03/18 09:08:21;;;;;;;6.72;4.35;;;;;;;;;;5009526;28;20041;-72
2023/03/18 09:10:49;;;;;;;13.38;5.13;;;;;;;;;;4989853;28;20034;-72
2023/03/18 09:13:15;;;;;;;6.72;4.80;;;;;;;;;;5009054;28;20451;-72
2023/03/18 09:15:41;;;;;;;8.45;5.00;;;;;;;;;;4997847;28;20152;-72
2023/03/18 09:18:07;;;;;;;6.05;4.25;;;;;;;;;;5005242;28;20101;-71
2023/03/18 09:20:33;;;;;;;4.40;3.25;;;;;;;;;;4992814;28;20026;-73
2023/03/18 09:22:59;;;;;;;5.00;3.97;;;;;;;;;;5002796;28;20227;-73
2023/03/18 09:25:25;;;;;;;4.90;3.90;;;;;;;;;;5020135;28;20057;-73
2023/03/18 09:27:52;;;;;;;5.38;3.60;;;;;;;;;;5007095;28;20438;-73
2023/03/18 09:30:19;;;;;;;6.20;4.55;;;;;;;;;;4991289;28;20101;-72
2023/03/18 09:32:45;;;;;;;8.23;4.70;;;;;;;;;;5009480;28;20160;-72
2023/03/18 09:35:11;;;;;;;6.88;3.88;;;;;;;;;;5010550;28;20014;-72
2023/03/18 09:37:38;;;;;;;4.82;3.80;;;;;;;;;;5009613;28;20151;-71
2023/03/18 09:40:09;;;;;;;7.35;4.25;;;;;;;;;;5010105;28;20022;-72
2023/03/18 09:42:59;;;;;;;6.90;3.60;;;;;;;;;;5010595;28;20033;-70
2023/03/18 09:45:56;;;;;;;4.68;3.47;;;;;;;;;;5010169;28;20038;-71
2023/03/18 09:48:26;;;;;;;4.70;3.40;;;;;;;;;;5010727;28;20499;-72
2023/03/18 09:51:10;;;;;;;4.60;3.50;;;;;;;;;;5005205;28;20033;-72
2023/03/18 09:53:41;;;;;;;4.80;3.50;;;;;;;;;;5010232;28;20099;-70
2023/03/18 09:56:14;;;;;;;3.80;3.22;;;;;;;;;;5008864;28;20080;-72
2023/03/18 09:58:55;;;;;;;4.47;3.53;;;;;;;;;;5009815;28;20041;-70
2023/03/18 10:01:25;;;;;;;8.93;4.60;;;;;;;;;;5008808;28;20399;-73
2023/03/18 10:04:09;;;;;;;7.63;4.28;;;;;;;;;;5011621;28;20057;-73
2023/03/18 10:06:36;;;;;;;5.18;3.60;;;;;;;;;;5012627;28;20045;-73
2023/03/18 10:09:27;;;;;;;5.35;3.90;;;;;;;;;;5012782;28;20028;-71
2023/03/18 10:12:04;;;;;;;6.43;4.45;;;;;;;;;;5013609;28;20447;-71
2023/03/18 10:14:36;;;;;;;6.28;3.88;;;;;;;;;;5013945;28;20100;-71
2023/03/18 10:17:13;;;;;;;5.45;3.97;;;;;;;;;;5021367;28;20028;-71
2023/03/18 10:19:46;;;;;;;6.72;3.50;;;;;;;;;;5011910;28;20061;-71
2023/03/18 10:22:31;;;;;;;8.13;3.67;;;;;;;;;;5019384;28;20480;-71
2023/03/18 10:25:09;;;;;;;9.10;4.15;;;;;;;;;;5011491;28;20044;-72
2023/03/18 10:27:44;;;;;;;5.45;3.58;;;;;;;;;;5011806;28;20419;-71
2023/03/18 10:30:51;;;;;;;8.13;3.80;;;;;;;;;;5013615;28;20389;-71
2023/03/18 10:33:25;;;;;;;5.43;3.75;;;;;;;;;;4974447;28;20052;-71
2023/03/18 10:36:03;;;;;;;6.35;4.25;;;;;;;;;;5005782;28;20093;-72
2023/03/18 10:38:35;;;;;;;4.63;3.65;;;;;;;;;;5011571;28;20500;-72
2023/03/18 10:41:01;;;;;;;4.75;3.80;;;;;;;;;;5011711;28;20428;-72
2023/03/18 10:43:31;;;;;;;7.90;3.92;;;;;;;;;;5011452;28;20021;-71
2023/03/18 10:46:06;;;;;;;4.28;3.15;;;;;;;;;;5013091;28;20061;-71
2023/03/18 10:48:41;;;;;;;4.88;3.42;;;;;;;;;;5012510;28;20026;-72
2023/03/18 10:51:42;;;;;;;5.63;3.28;;;;;;;;;;5013758;28;20081;-73
2023/03/18 10:54:23;;;;;;;11.38;3.97;;;;;;;;;;5004947;28;20112;-71
2023/03/18 10:56:51;;;;;;;5.00;3.50;;;;;;;;;;5012371;28;20069;-71
2023/03/18 10:59:19;;;;;;;6.40;3.45;;;;;;;;;;5012292;28;20037;-72
2023/03/18 11:01:50;;;;;;;8.63;3.47;;;;;;;;;;5003786;28;20084;-72
2023/03/18 11:04:20;;;;;;;6.78;4.57;;;;;;;;;;5012961;28;20143;-71
2023/03/18 11:06:54;;;;;;;4.93;3.80;;;;;;;;;;5001504;28;20168;-70
2023/03/18 11:09:42;;;;;;;3.63;3.10;;;;;;;;;;5012203;28;20049;-71
2023/03/18 11:12:17;;;;;;;6.93;4.68;;;;;;;;;;5019035;28;20049;-72
2023/03/18 11:14:50;;;;;;;5.07;3.80;;;;;;;;;;5011669;28;20030;-71
2023/03/18 11:17:19;;;;;;;4.27;3.10;;;;;;;;;;5012293;28;20475;-71
2023/03/18 11:19:58;;;;;;;4.65;3.30;;;;;;;;;;5004487;28;20105;-72
2023/03/18 11:22:24;;;;;;;3.58;2.97;;;;;;;;;;5012063;28;20452;-72
2023/03/18 11:25:13;;;;;;;4.55;3.28;;;;;;;;;;5011441;28;20113;-73
2023/03/18 11:27:41;;;;;;;5.22;3.30;;;;;;;;;;5012821;28;20120;-71
2023/03/18 11:30:16;;;;;;;6.13;3.50;;;;;;;;;;5012068;28;20010;-71
2023/03/18 11:33:02;;;;;;;5.97;3.92;;;;;;;;;;5012031;28;20153;-70
2023/03/18 11:35:42;;;;;;;6.28;3.60;;;;;;;;;;5010006;28;20080;-71
2023/03/18 11:38:27;;;;;;;5.78;3.10;;;;;;;;;;5024819;28;20518;-71
2023/03/18 11:41:08;;;;;;;7.72;4.72;;;;;;;;;;5032323;28;20048;-71
2023/03/18 11:43:36;;;;;;;9.18;4.43;;;;;;;;;;5031602;28;20041;-70
2023/03/18 11:46:09;;;;;;;5.63;3.40;;;;;;;;;;5018419;28;20023;-71
2023/03/18 11:48:36;;;;;;;;;;;;;;;;;;5001504;28;20042;-71
2023/03/18 11:51:09;;;;;;;3.50;2.50;;;;;;;;;;5006859;28;19909;-72
2023/03/18 11:53:52;;;;;;;10.00;3.05;;;;;;;;;;4994676;28;20044;-71
2023/03/18 11:56:58;;;;;;;4.63;2.93;;;;;;;;;;5000416;28;20030;-72
2023/03/18 11:59:27;;;;;;;7.97;3.78;;;;;;;;;;4987987;28;20052;-71
2023/03/18 12:02:15;;;;;;;15.05;7.40;;;;;;;;;;5018423;28;20022;-71
2023/03/18 12:04:47;;;;;;;10.93;6.43;;;;;;;;;;4972339;28;20046;-71
2023/03/18 12:07:34;;;;;;;5.00;3.70;;;;;;;;;;5009936;28;20527;-72
2023/03/18 12:10:31;;;;;;;21.13;10.98;;;;;;;;;;5012005;28;20041;-72
2023/03/18 12:13:19;;;;;;;6.40;3.05;;;;;;;;;;5012326;28;20038;-71
2023/03/18 12:15:53;;;;;;;5.40;3.42;;;;;;;;;;5011593;28;20498;-72
2023/03/18 12:18:19;;;;;;;11.05;6.32;;;;;;;;;;5011275;28;20103;-72
2023/03/18 12:20:59;;;;;;;6.00;3.42;;;;;;;;;;5010614;28;20536;-73
2023/03/18 12:23:25;;;;;;;4.55;2.83;;;;;;;;;;5022764;28;20033;-72
2023/03/18 12:25:56;;;;;;;6.78;3.25;;;;;;;;;;5010691;28;20473;-73
2023/03/18 12:28:43;;;;;;;4.53;2.83;;;;;;;;;;5009158;28;20034;-73
2023/03/18 12:31:47;;;;;;;7.82;3.10;;;;;;;;;;5010319;28;20068;-73
2023/03/18 12:34:43;;;;;;;4.35;2.40;;;;;;;;;;4997941;28;20053;-72
2023/03/18 12:37:36;;;;;;;7.00;2.67;;;;;;;;;;5011158;28;20072;-73
2023/03/18 12:40:11;;;;;;;6.53;3.13;;;;;;;;;;5008277;28;20030;-75
2023/03/18 12:43:02;;;;;;;5.25;3.00;;;;;;;;;;5013901;28;20042;-71
2023/03/18 12:45:52;;;;;;;5.88;3.35;;;;;;;;;;5013894;28;20026;-74
2023/03/18 12:48:26;;;;;;;12.13;7.00;;;;;;;;;;5003238;28;20420;-73
2023/03/18 12:51:00;;;;;;;4.60;3.30;;;;;;;;;;5005042;28;20041;-73
2023/03/18 12:53:29;;;;;;;12.63;4.90;;;;;;;;;;5010926;28;20037;-74
2023/03/18 12:56:08;;;;;;;8.18;4.10;;;;;;;;;;4992167;28;20062;-72
2023/03/18 12:58:47;;;;;;;8.32;4.75;;;;;;;;;;5009646;28;20092;-72
2023/03/18 13:01:20;;;;;;;6.32;3.00;;;;;;;;;;5011036;28;20436;-71
2023/03/18 13:04:05;;;;;;;;;;;;;;;;;;5011907;28;20040;-73
2023/03/18 13:06:42;;;;;;;8.65;4.75;;;;;;;;;;5011340;28;20341;-72
2023/03/18 13:09:35;;;;;;;7.00;3.08;;;;;;;;;;5011187;28;20511;-75
2023/03/18 13:12:07;;;;;;;4.53;2.87;;;;;;;;;;5010132;28;20431;-73
2023/03/18 13:15:01;;;;;;;6.03;3.25;;;;;;;;;;5018221;28;20287;-75
2023/03/18 13:17:44;;;;;;;4.38;3.00;;;;;;;;;;5012870;28;20172;-74
2023/03/18 13:20:15;;;;;;;5.28;3.00;;;;;;;;;;5015788;28;20026;-72
2023/03/18 13:22:45;;;;;;;8.25;4.55;;;;;;;;;;4993006;28;20088;-73
2023/03/18 13:25:27;;;;;;;4.38;3.10;;;;;;;;;;5007941;28;20104;-72
2023/03/18 13:28:11;;;;;;;4.55;3.20;;;;;;;;;;5009111;28;20036;-72
2023/03/18 13:31:05;;;;;;;6.55;3.47;;;;;;;;;;5008281;28;20034;-71
2023/03/18 13:33:51;;;;;;;8.75;5.05;;;;;;;;;;5023423;28;20046;-73
2023/03/18 13:36:17;;;;;;;8.77;5.88;;;;;;;;;;4988574;28;20065;-71
2023/03/18 13:39:05;;;;;;;9.35;3.47;;;;;;;;;;5033510;28;20132;-72
2023/03/18 13:41:44;;;;;;;6.97;2.95;;;;;;;;;;5017341;28;20046;-72
2023/03/18 13:44:18;;;;;;;6.85;3.17;;;;;;;;;;5015229;28;20484;-73
2023/03/18 13:47:00;;;;;;;8.30;5.28;;;;;;;;;;5014926;28;20515;-71
2023/03/18 13:49:29;;;;;;;4.97;3.10;;;;;;;;;;5014870;28;20472;-73
2023/03/18 13:52:01;;;;;;;5.63;4.07;;;;;;;;;;5014755;28;20032;-72
2023/03/18 13:54:34;;;;;;;7.18;4.70;;;;;;;;;;5015187;28;20403;-71
2023/03/18 13:57:25;;;;;;;7.28;4.70;;;;;;;;;;4997351;28;20034;-73
2023/03/18 14:00:13;;;;;;;7.93;3.28;;;;;;;;;;5014782;28;20436;-74
2023/03/18 14:02:44;;;;;;;4.63;2.83;;;;;;;;;;5015030;28;20400;-74
2023/03/18 14:05:45;;;;;;;6.32;3.67;;;;;;;;;;5014692;28;20057;-74
2023/03/18 14:08:42;;;;;;;10.55;6.57;;;;;;;;;;4935208;29;20435;-74
2023/03/18 14:11:27;;;;;;;6.70;3.10;;;;;;;;;;4997305;28;20480;-75
2023/03/18 14:13:59;;;;;;;3.20;2.50;;;;;;;;;;5014360;28;20030;-76
2023/03/18 14:16:46;;;;;;;3.90;2.30;;;;;;;;;;5014631;28;20491;-75
2023/03/18 14:19:16;;;;;;;5.93;3.30;;;;;;;;;;5014156;28;20129;-75
2023/03/18 14:22:14;;;;;;;6.47;3.00;;;;;;;;;;4996766;28;20448;-74
2023/03/18 14:24:43;;;;;;;4.43;3.15;;;;;;;;;;5007482;28;20054;-73
2023/03/18 14:27:16;;;;;;;8.13;3.03;;;;;;;;;;4996185;28;20113;-74
2023/03/18 14:29:46;;;;;;;5.03;2.78;;;;;;;;;;4988838;28;20077;-72
2023/03/18 14:32:33;;;;;;;5.28;2.80;;;;;;;;;;5014237;28;20074;-72
2023/03/18 14:35:17;;;;;;;4.25;2.58;;;;;;;;;;5008575;28;20504;-76
2023/03/18 14:38:02;;;;;;;;;;;;;;;;;;5013351;28;20068;-73
2023/03/18 14:40:34;;;;;;;4.07;2.20;;;;;;;;;;5011087;28;20171;-73
2023/03/18 14:43:09;;;;;;;4.40;2.47;;;;;;;;;;5014215;28;20037;-72
2023/03/18 14:45:40;;;;;;;5.35;2.75;;;;;;;;;;5014511;28;20053;-73
2023/03/18 14:48:28;;;;;;;4.75;2.70;;;;;;;;;;5013729;28;20042;-75
2023/03/18 14:51:00;;;;;;;4.68;2.35;;;;;;;;;;4995451;28;20133;-73
2023/03/18 14:53:40;;;;;;;6.07;2.50;;;;;;;;;;5013759;28;20041;-73
2023/03/18 14:56:20;;;;;;;4.80;2.72;;;;;;;;;;5014126;28;20325;-72
2023/03/18 14:58:46;;;;;;;6.65;2.53;;;;;;;;;;5013430;28;20124;-72